Point Fermin — WDE4178 — position and weather

sailwx.info

Track history (hours):
 
Tides and Currents Weather Stations Pressure Air Temp Water Temp Dewpoint Dewpoint Depression Visibility Wind Speed Wind Dir Waves Ship Positions

Point Fermin

Owner: Foss Maritime Company, Seattle, WA. More information available from US FCC via Universal Licensing System and Coast Guard Vessel Documentation Center.

Last reported at 2018-Jan-21 23:30 UTC. Time now 2018-Jan-21 23:57 UTC.
Position N 37°54' W 122°22'.

Length 32 m; draft 4.3 m.

Type: Towing. MMSI: 367349770.

Date/timePositionNaut miles runAvg speedWind from/ knotsBaromVisibWave heightAir tempDewpointWater temp
2018-Jan-21 23:30N 37°54' W 122°22'1 1.4
2018-Jan-21 23:00N 37°55' W 122°22'0 0.8
2018-Jan-21 22:30N 37°55' W 122°22'0 0.8
2018-Jan-21 21:59N 37°54' W 122°22'0 0.0
2018-Jan-21 21:29N 37°54' W 122°22'0 0.0
2018-Jan-21 20:59N 37°54' W 122°22'0 0.0
2018-Jan-21 20:29N 37°54' W 122°22'0 0.0
2018-Jan-21 19:59N 37°54' W 122°22'0 0.0
2018-Jan-21 19:29N 37°54' W 122°22'0 0.0
2018-Jan-21 18:59N 37°54' W 122°22'0 0.0
2018-Jan-21 18:29N 37°54' W 122°22'0 0.0
2018-Jan-21 17:59N 37°54' W 122°22'0 0.0
2018-Jan-21 17:29N 37°54' W 122°22'0 0.0
2018-Jan-21 16:59N 37°54' W 122°22'0 0.0
2018-Jan-21 16:29N 37°54' W 122°22'0 0.0
2018-Jan-21 15:59N 37°54' W 122°22'0 0.0
2018-Jan-21 15:29N 37°54' W 122°22'0 0.0
2018-Jan-21 14:59N 37°54' W 122°22'0 0.0
2018-Jan-21 14:29N 37°54' W 122°22'0 0.0
2018-Jan-21 13:59N 37°54' W 122°22'0 0.0
2018-Jan-21 13:29N 37°54' W 122°22'0 0.0
2018-Jan-21 12:59N 37°54' W 122°22'0 0.2
2018-Jan-21 12:30N 37°54' W 122°22'2 3.0
2018-Jan-21 12:00N 37°54' W 122°24'4 7.3
2018-Jan-21 11:31N 37°51' W 122°23'4 7.1
2018-Jan-21 11:00N 37°47' W 122°21'2 3.5
2018-Jan-21 10:30N 37°45' W 122°21'0 0.1
2018-Jan-21 09:59N 37°45' W 122°21'0 0.0
2018-Jan-21 09:29N 37°45' W 122°21'0 0.0
2018-Jan-21 08:59N 37°45' W 122°21'0 0.0
2018-Jan-21 08:29N 37°45' W 122°21'0 0.0
2018-Jan-21 07:59N 37°45' W 122°21'0 0.0
2018-Jan-21 07:29N 37°45' W 122°21'0 0.0
2018-Jan-21 06:59N 37°45' W 122°21'0 0.0
2018-Jan-21 06:29N 37°45' W 122°21'0 0.0
2018-Jan-21 05:59N 37°45' W 122°21'0 0.1
2018-Jan-21 05:29N 37°45' W 122°21'0 0.3
2018-Jan-21 04:59N 37°46' W 122°21'0 0.2
2018-Jan-21 04:31N 37°46' W 122°21'2 4.9
2018-Jan-21 04:00N 37°48' W 122°19'1 1.3
2018-Jan-21 03:29N 37°48' W 122°19'0 0.0
2018-Jan-21 02:59N 37°48' W 122°19'0 0.0
2018-Jan-21 02:29N 37°48' W 122°19'0 0.0
2018-Jan-21 01:59N 37°48' W 122°19'0 0.0
2018-Jan-21 01:29N 37°48' W 122°19'0 0.0
2018-Jan-21 00:59N 37°48' W 122°19'0 0.0
2018-Jan-21 00:29N 37°48' W 122°19'0 0.0
2018-Jan-20 23:59N 37°48' W 122°19'0 0.0
2018-Jan-20 23:29N 37°48' W 122°19'0 0.0
2018-Jan-20 22:59N 37°48' W 122°19'0 0.0
2018-Jan-20 22:29N 37°48' W 122°19'0 0.0
2018-Jan-20 21:59N 37°48' W 122°19'0 0.0
2018-Jan-20 21:29N 37°48' W 122°19'0 0.0
2018-Jan-20 20:59N 37°48' W 122°19'0 0.0
2018-Jan-20 20:29N 37°48' W 122°19'0 0.0
2018-Jan-20 19:59N 37°48' W 122°19'0 0.0
2018-Jan-20 19:29N 37°48' W 122°19'0 0.0
2018-Jan-20 18:59N 37°48' W 122°19'0 0.0
2018-Jan-20 18:29N 37°48' W 122°19'0 0.0
2018-Jan-20 17:59N 37°48' W 122°19'0 0.0
2018-Jan-20 17:29N 37°48' W 122°19'0 0.0
2018-Jan-20 17:00N 37°48' W 122°19'0 0.0
2018-Jan-20 16:30N 37°48' W 122°19'2 4.7
2018-Jan-20 16:01N 37°49' W 122°21'1 1.2
2018-Jan-20 15:30N 37°49' W 122°22'0 0.0
2018-Jan-20 15:01N 37°49' W 122°22'0 0.0
2018-Jan-20 14:30N 37°49' W 122°22'0 0.0
2018-Jan-20 14:01N 37°49' W 122°22'1 2.0
2018-Jan-20 13:31N 37°50' W 122°22'4 7.9
2018-Jan-20 13:01N 37°54' W 122°24'2 3.1
2018-Jan-20 12:29N 37°54' W 122°22'0 0.0
2018-Jan-20 11:59N 37°54' W 122°22'0 0.0
2018-Jan-20 11:29N 37°54' W 122°22'0 0.0
2018-Jan-20 10:59N 37°54' W 122°22'0 0.0
2018-Jan-20 10:29N 37°54' W 122°22'0 0.0
2018-Jan-20 09:56N 37°54' W 122°22'0 0.0
2018-Jan-20 09:26N 37°54' W 122°22'0 0.0
2018-Jan-20 08:59N 37°54' W 122°22'0 0.0
2018-Jan-20 08:29N 37°54' W 122°22'0 0.0
2018-Jan-20 07:59N 37°54' W 122°22'0 0.0
2018-Jan-20 07:29N 37°54' W 122°22'0 0.0
2018-Jan-20 06:59N 37°54' W 122°22'0 0.0
2018-Jan-20 06:29N 37°54' W 122°22'0 0.0
2018-Jan-20 05:59N 37°54' W 122°22'0 0.0
2018-Jan-20 05:26N 37°54' W 122°22'0 0.0
2018-Jan-20 04:59N 37°54' W 122°22'0 0.0
2018-Jan-20 04:29N 37°54' W 122°22'0 0.0
2018-Jan-20 03:59N 37°54' W 122°22'0 0.0
2018-Jan-20 03:29N 37°54' W 122°22'0 0.0
2018-Jan-20 02:59N 37°54' W 122°22'0 0.0
2018-Jan-20 02:29N 37°54' W 122°22'0 0.0
2018-Jan-20 01:59N 37°54' W 122°22'0 0.0
2018-Jan-20 01:29N 37°54' W 122°22'0 0.0
2018-Jan-20 00:59N 37°54' W 122°22'0 0.0
2018-Jan-20 00:29N 37°54' W 122°22'0 0.0
2018-Jan-19 23:59N 37°54' W 122°22'0 0.0
2018-Jan-19 23:29N 37°54' W 122°22'0 0.0
2018-Jan-19 22:56N 37°54' W 122°22'0 0.0
2018-Jan-19 22:29N 37°54' W 122°22'0 0.0
2018-Jan-19 21:59N 37°54' W 122°22'0 0.0
2018-Jan-19 21:29N 37°54' W 122°22'0 0.0
2018-Jan-19 20:59N 37°54' W 122°22'0 0.0
2018-Jan-19 20:29N 37°54' W 122°22'0 0.0
2018-Jan-19 19:59N 37°54' W 122°22'0 0.0
2018-Jan-19 19:29N 37°54' W 122°22'1 3.0
2018-Jan-19 19:00N 37°55' W 122°24'1 2.1
2018-Jan-19 18:30N 37°55' W 122°25'1 2.8
2018-Jan-19 18:00N 37°54' W 122°24'2 3.0
2018-Jan-19 17:30N 37°55' W 122°22'0 0.7
2018-Jan-19 17:00N 37°55' W 122°22'1 1.5
2018-Jan-19 16:30N 37°54' W 122°22'2 5.0
2018-Jan-19 16:00N 37°52' W 122°24'3 6.2
2018-Jan-19 15:30N 37°49' W 122°22'0 0.0
2018-Jan-19 15:00N 37°49' W 122°22'0 0.0
2018-Jan-19 14:30N 37°49' W 122°22'0 0.0
2018-Jan-19 14:00N 37°49' W 122°22'0 0.0
2018-Jan-19 13:30N 37°49' W 122°22'0 0.0
2018-Jan-19 13:00N 37°49' W 122°22'0 0.0
2018-Jan-19 12:30N 37°49' W 122°22'0 0.0
2018-Jan-19 12:00N 37°49' W 122°22'0 0.0
2018-Jan-19 11:30N 37°49' W 122°22'0 0.0
2018-Jan-19 11:00N 37°49' W 122°22'0 0.0
2018-Jan-19 10:30N 37°49' W 122°22'0 0.0
2018-Jan-19 10:00N 37°49' W 122°22'0 0.0
2018-Jan-19 09:30N 37°49' W 122°22'0 0.0
2018-Jan-19 08:57N 37°49' W 122°22'0 0.0
2018-Jan-19 08:30N 37°49' W 122°22'0 0.0
2018-Jan-19 08:00N 37°49' W 122°22'0 0.0
2018-Jan-19 07:30N 37°49' W 122°22'0 0.0
2018-Jan-19 07:00N 37°49' W 122°22'0 0.0
2018-Jan-19 06:30N 37°49' W 122°22'0 0.0
2018-Jan-19 06:00N 37°49' W 122°22'0 0.0
2018-Jan-19 05:30N 37°49' W 122°22'0 0.0
2018-Jan-19 05:00N 37°49' W 122°22'0 0.0
2018-Jan-19 04:30N 37°49' W 122°22'0 0.0
2018-Jan-19 04:00N 37°49' W 122°22'0 0.0
2018-Jan-19 03:30N 37°49' W 122°22'0 0.0
2018-Jan-19 03:00N 37°49' W 122°22'0 0.0
2018-Jan-19 02:30N 37°49' W 122°22'0 0.0
2018-Jan-19 02:00N 37°49' W 122°22'0 0.0
2018-Jan-19 01:30N 37°49' W 122°22'0 0.0
2018-Jan-19 01:00N 37°49' W 122°22'0 0.0
2018-Jan-19 00:30N 37°49' W 122°22'0 0.0
2018-Jan-19 00:00N 37°49' W 122°22'0 0.1
2018-Jan-18 23:27N 37°49' W 122°22'1 3.0
2018-Jan-18 23:00N 37°50' W 122°22'2 4.5
2018-Jan-18 22:30N 37°52' W 122°24'2 4.5
2018-Jan-18 22:00N 37°54' W 122°24'1 2.7
2018-Jan-18 21:28N 37°55' W 122°22'1 1.7
2018-Jan-18 20:59N 37°54' W 122°22'0 0.0
2018-Jan-18 20:26N 37°54' W 122°22'0 0.0
2018-Jan-18 19:59N 37°54' W 122°22'0 0.0
2018-Jan-18 19:26N 37°54' W 122°22'0 0.0
2018-Jan-18 18:59N 37°54' W 122°22'0 0.0
2018-Jan-18 18:29N 37°54' W 122°22'0 0.0
2018-Jan-18 17:56N 37°54' W 122°22'0 0.0
2018-Jan-18 17:29N 37°54' W 122°22'0 0.0
2018-Jan-18 16:59N 37°54' W 122°22'0 0.0
2018-Jan-18 16:29N 37°54' W 122°22'0 0.0
2018-Jan-18 16:01N 37°54' W 122°22'1 1.8
2018-Jan-18 15:30N 37°55' W 122°22'0 0.6
2018-Jan-18 15:00N 37°55' W 122°22'1 2.0
2018-Jan-18 14:31N 37°54' W 122°23'2 4.9
2018-Jan-18 14:01N 37°56' W 122°25'1 2.2
2018-Jan-18 13:30N 37°55' W 122°24'2 3.1
2018-Jan-18 12:58N 37°54' W 122°22'0 0.0
2018-Jan-18 12:28N 37°54' W 122°22'0 0.0
2018-Jan-18 11:58N 37°54' W 122°22'0 0.0
2018-Jan-18 11:28N 37°54' W 122°22'0 0.0
2018-Jan-18 10:58N 37°54' W 122°22'0 0.0
2018-Jan-18 10:28N 37°54' W 122°22'0 0.0
2018-Jan-18 09:58N 37°54' W 122°22'0 0.0
2018-Jan-18 09:25N 37°54' W 122°22'0 0.0
2018-Jan-18 08:58N 37°54' W 122°22'0 0.0
2018-Jan-18 08:28N 37°54' W 122°22'0 0.0
2018-Jan-18 07:58N 37°54' W 122°22'0 0.0
2018-Jan-18 07:25N 37°54' W 122°22'0 0.0
2018-Jan-18 06:58N 37°54' W 122°22'0 0.0
2018-Jan-18 06:28N 37°54' W 122°22'0 0.0
2018-Jan-18 05:58N 37°54' W 122°22'0 0.0
2018-Jan-18 05:28N 37°54' W 122°22'0 0.0
2018-Jan-18 04:58N 37°54' W 122°22'0 0.0
2018-Jan-18 04:28N 37°54' W 122°22'0 0.0
2018-Jan-18 03:58N 37°54' W 122°22'0 0.0
2018-Jan-18 03:28N 37°54' W 122°22'0 0.0
2018-Jan-18 02:58N 37°54' W 122°22'0 0.0
2018-Jan-18 02:28N 37°54' W 122°22'0 0.0
2018-Jan-18 01:58N 37°54' W 122°22'0 0.0
2018-Jan-18 01:28N 37°54' W 122°22'0 0.0
2018-Jan-18 00:58N 37°54' W 122°22'0 0.5
2018-Jan-18 00:00N 37°54' W 122°22'0 6.8
2018-Jan-17 23:58N 37°54' W 122°22'  
2018-Jan-12 15:00N 37°45' W 122°20'0 0.0
2018-Jan-12 14:30N 37°45' W 122°20'0 0.0
2018-Jan-12 14:00N 37°45' W 122°20'0 0.0
2018-Jan-12 13:30N 37°45' W 122°20'0 0.0
2018-Jan-12 13:00N 37°45' W 122°20'0 0.0
2018-Jan-12 12:30N 37°45' W 122°20'0 0.0
2018-Jan-12 12:00N 37°45' W 122°20'0 0.5
2018-Jan-12 11:30N 37°45' W 122°20'3 5.5
2018-Jan-12 11:00N 37°48' W 122°21'2 3.0
2018-Jan-12 10:28N 37°49' W 122°19'0 0.0
2018-Jan-12 09:58N 37°49' W 122°19'0 0.0
2018-Jan-12 09:28N 37°49' W 122°19'0 0.0
2018-Jan-12 08:58N 37°49' W 122°19'0 0.0
2018-Jan-12 08:28N 37°49' W 122°19'0 0.0
2018-Jan-12 07:58N 37°49' W 122°19'0 0.0
2018-Jan-12 07:28N 37°49' W 122°19'0 0.0
2018-Jan-12 06:58N 37°49' W 122°19'0 0.0
2018-Jan-12 06:28N 37°49' W 122°19'0 0.0
2018-Jan-12 05:58N 37°49' W 122°19'0 0.0
2018-Jan-12 05:28N 37°49' W 122°19'0 0.0
2018-Jan-12 04:58N 37°49' W 122°19'0 0.0
2018-Jan-12 04:28N 37°49' W 122°19'0 0.0
2018-Jan-12 03:58N 37°49' W 122°19'0 0.0
2018-Jan-12 03:28N 37°49' W 122°19'0 0.0
2018-Jan-12 02:58N 37°49' W 122°19'1 2.2
2018-Jan-12 02:31N 37°48' W 122°21'2 4.3
2018-Jan-12 02:00N 37°46' W 122°20'1 1.8
2018-Jan-12 01:31N 37°45' W 122°21'0 0.0
2018-Jan-12 01:01N 37°45' W 122°21'0 0.1
2018-Jan-12 00:31N 37°45' W 122°21'0 0.1
2018-Jan-12 00:00N 37°45' W 122°21'0 0.3
2018-Jan-11 23:31N 37°46' W 122°21'  
Track history (hours):
 
Tides and Currents Weather Stations Pressure Air Temp Water Temp Dewpoint Dewpoint Depression Visibility Wind Speed Wind Dir Waves Ship Positions

Point Fermin

Owner: Foss Maritime Company, Seattle, WA. More information available from US FCC via Universal Licensing System and Coast Guard Vessel Documentation Center.

Last reported at 2018-Jan-21 23:30 UTC. Time now 2018-Jan-21 23:57 UTC.
Position N 37°54' W 122°22'.

Length 32 m; draft 4.3 m.

Type: Towing. MMSI: 367349770.

Date/timePositionNaut miles runAvg speedWind from/ knotsBaromVisibWave heightAir tempDewpointWater temp
2018-Jan-21 23:30N 37°54' W 122°22'1 1.4
2018-Jan-21 23:00N 37°55' W 122°22'0 0.8
2018-Jan-21 22:30N 37°55' W 122°22'0 0.8
2018-Jan-21 21:59N 37°54' W 122°22'0 0.0
2018-Jan-21 21:29N 37°54' W 122°22'0 0.0
2018-Jan-21 20:59N 37°54' W 122°22'0 0.0
2018-Jan-21 20:29N 37°54' W 122°22'0 0.0
2018-Jan-21 19:59N 37°54' W 122°22'0 0.0
2018-Jan-21 19:29N 37°54' W 122°22'0 0.0
2018-Jan-21 18:59N 37°54' W 122°22'0 0.0
2018-Jan-21 18:29N 37°54' W 122°22'0 0.0
2018-Jan-21 17:59N 37°54' W 122°22'0 0.0
2018-Jan-21 17:29N 37°54' W 122°22'0 0.0
2018-Jan-21 16:59N 37°54' W 122°22'0 0.0
2018-Jan-21 16:29N 37°54' W 122°22'0 0.0
2018-Jan-21 15:59N 37°54' W 122°22'0 0.0
2018-Jan-21 15:29N 37°54' W 122°22'0 0.0
2018-Jan-21 14:59N 37°54' W 122°22'0 0.0
2018-Jan-21 14:29N 37°54' W 122°22'0 0.0
2018-Jan-21 13:59N 37°54' W 122°22'0 0.0
2018-Jan-21 13:29N 37°54' W 122°22'0 0.0
2018-Jan-21 12:59N 37°54' W 122°22'0 0.2
2018-Jan-21 12:30N 37°54' W 122°22'2 3.0
2018-Jan-21 12:00N 37°54' W 122°24'4 7.3
2018-Jan-21 11:31N 37°51' W 122°23'4 7.1
2018-Jan-21 11:00N 37°47' W 122°21'2 3.5
2018-Jan-21 10:30N 37°45' W 122°21'0 0.1
2018-Jan-21 09:59N 37°45' W 122°21'0 0.0
2018-Jan-21 09:29N 37°45' W 122°21'0 0.0
2018-Jan-21 08:59N 37°45' W 122°21'0 0.0
2018-Jan-21 08:29N 37°45' W 122°21'0 0.0
2018-Jan-21 07:59N 37°45' W 122°21'0 0.0
2018-Jan-21 07:29N 37°45' W 122°21'0 0.0
2018-Jan-21 06:59N 37°45' W 122°21'0 0.0
2018-Jan-21 06:29N 37°45' W 122°21'0 0.0
2018-Jan-21 05:59N 37°45' W 122°21'0 0.1
2018-Jan-21 05:29N 37°45' W 122°21'0 0.3
2018-Jan-21 04:59N 37°46' W 122°21'0 0.2
2018-Jan-21 04:31N 37°46' W 122°21'2 4.9
2018-Jan-21 04:00N 37°48' W 122°19'1 1.3
2018-Jan-21 03:29N 37°48' W 122°19'0 0.0
2018-Jan-21 02:59N 37°48' W 122°19'0 0.0
2018-Jan-21 02:29N 37°48' W 122°19'0 0.0
2018-Jan-21 01:59N 37°48' W 122°19'0 0.0
2018-Jan-21 01:29N 37°48' W 122°19'0 0.0
2018-Jan-21 00:59N 37°48' W 122°19'0 0.0
2018-Jan-21 00:29N 37°48' W 122°19'0 0.0
2018-Jan-20 23:59N 37°48' W 122°19'0 0.0
2018-Jan-20 23:29N 37°48' W 122°19'0 0.0
2018-Jan-20 22:59N 37°48' W 122°19'0 0.0
2018-Jan-20 22:29N 37°48' W 122°19'0 0.0
2018-Jan-20 21:59N 37°48' W 122°19'0 0.0
2018-Jan-20 21:29N 37°48' W 122°19'0 0.0
2018-Jan-20 20:59N 37°48' W 122°19'0 0.0
2018-Jan-20 20:29N 37°48' W 122°19'0 0.0
2018-Jan-20 19:59N 37°48' W 122°19'0 0.0
2018-Jan-20 19:29N 37°48' W 122°19'0 0.0
2018-Jan-20 18:59N 37°48' W 122°19'0 0.0
2018-Jan-20 18:29N 37°48' W 122°19'0 0.0
2018-Jan-20 17:59N 37°48' W 122°19'0 0.0
2018-Jan-20 17:29N 37°48' W 122°19'0 0.0
2018-Jan-20 17:00N 37°48' W 122°19'0 0.0
2018-Jan-20 16:30N 37°48' W 122°19'2 4.7
2018-Jan-20 16:01N 37°49' W 122°21'1 1.2
2018-Jan-20 15:30N 37°49' W 122°22'0 0.0
2018-Jan-20 15:01N 37°49' W 122°22'0 0.0
2018-Jan-20 14:30N 37°49' W 122°22'0 0.0
2018-Jan-20 14:01N 37°49' W 122°22'1 2.0
2018-Jan-20 13:31N 37°50' W 122°22'4 7.9
2018-Jan-20 13:01N 37°54' W 122°24'2 3.1
2018-Jan-20 12:29N 37°54' W 122°22'0 0.0
2018-Jan-20 11:59N 37°54' W 122°22'0 0.0
2018-Jan-20 11:29N 37°54' W 122°22'0 0.0
2018-Jan-20 10:59N 37°54' W 122°22'0 0.0
2018-Jan-20 10:29N 37°54' W 122°22'0 0.0
2018-Jan-20 09:56N 37°54' W 122°22'0 0.0
2018-Jan-20 09:26N 37°54' W 122°22'0 0.0
2018-Jan-20 08:59N 37°54' W 122°22'0 0.0
2018-Jan-20 08:29N 37°54' W 122°22'0 0.0
2018-Jan-20 07:59N 37°54' W 122°22'0 0.0
2018-Jan-20 07:29N 37°54' W 122°22'0 0.0
2018-Jan-20 06:59N 37°54' W 122°22'0 0.0
2018-Jan-20 06:29N 37°54' W 122°22'0 0.0
2018-Jan-20 05:59N 37°54' W 122°22'0 0.0
2018-Jan-20 05:26N 37°54' W 122°22'0 0.0
2018-Jan-20 04:59N 37°54' W 122°22'0 0.0
2018-Jan-20 04:29N 37°54' W 122°22'0 0.0
2018-Jan-20 03:59N 37°54' W 122°22'0 0.0
2018-Jan-20 03:29N 37°54' W 122°22'0 0.0
2018-Jan-20 02:59N 37°54' W 122°22'0 0.0
2018-Jan-20 02:29N 37°54' W 122°22'0 0.0
2018-Jan-20 01:59N 37°54' W 122°22'0 0.0
2018-Jan-20 01:29N 37°54' W 122°22'0 0.0
2018-Jan-20 00:59N 37°54' W 122°22'0 0.0
2018-Jan-20 00:29N 37°54' W 122°22'0 0.0
2018-Jan-19 23:59N 37°54' W 122°22'0 0.0
2018-Jan-19 23:29N 37°54' W 122°22'0 0.0
2018-Jan-19 22:56N 37°54' W 122°22'0 0.0
2018-Jan-19 22:29N 37°54' W 122°22'0 0.0
2018-Jan-19 21:59N 37°54' W 122°22'0 0.0
2018-Jan-19 21:29N 37°54' W 122°22'0 0.0
2018-Jan-19 20:59N 37°54' W 122°22'0 0.0
2018-Jan-19 20:29N 37°54' W 122°22'0 0.0
2018-Jan-19 19:59N 37°54' W 122°22'0 0.0
2018-Jan-19 19:29N 37°54' W 122°22'1 3.0
2018-Jan-19 19:00N 37°55' W 122°24'1 2.1
2018-Jan-19 18:30N 37°55' W 122°25'1 2.8
2018-Jan-19 18:00N 37°54' W 122°24'2 3.0
2018-Jan-19 17:30N 37°55' W 122°22'0 0.7
2018-Jan-19 17:00N 37°55' W 122°22'1 1.5
2018-Jan-19 16:30N 37°54' W 122°22'2 5.0
2018-Jan-19 16:00N 37°52' W 122°24'3 6.2
2018-Jan-19 15:30N 37°49' W 122°22'0 0.0
2018-Jan-19 15:00N 37°49' W 122°22'0 0.0
2018-Jan-19 14:30N 37°49' W 122°22'0 0.0
2018-Jan-19 14:00N 37°49' W 122°22'0 0.0
2018-Jan-19 13:30N 37°49' W 122°22'0 0.0
2018-Jan-19 13:00N 37°49' W 122°22'0 0.0
2018-Jan-19 12:30N 37°49' W 122°22'0 0.0
2018-Jan-19 12:00N 37°49' W 122°22'0 0.0
2018-Jan-19 11:30N 37°49' W 122°22'0 0.0
2018-Jan-19 11:00N 37°49' W 122°22'0 0.0
2018-Jan-19 10:30N 37°49' W 122°22'0 0.0
2018-Jan-19 10:00N 37°49' W 122°22'0 0.0
2018-Jan-19 09:30N 37°49' W 122°22'0 0.0
2018-Jan-19 08:57N 37°49' W 122°22'0 0.0
2018-Jan-19 08:30N 37°49' W 122°22'0 0.0
2018-Jan-19 08:00N 37°49' W 122°22'0 0.0
2018-Jan-19 07:30N 37°49' W 122°22'0 0.0
2018-Jan-19 07:00N 37°49' W 122°22'0 0.0
2018-Jan-19 06:30N 37°49' W 122°22'0 0.0
2018-Jan-19 06:00N 37°49' W 122°22'0 0.0
2018-Jan-19 05:30N 37°49' W 122°22'0 0.0
2018-Jan-19 05:00N 37°49' W 122°22'0 0.0
2018-Jan-19 04:30N 37°49' W 122°22'0 0.0
2018-Jan-19 04:00N 37°49' W 122°22'0 0.0
2018-Jan-19 03:30N 37°49' W 122°22'0 0.0
2018-Jan-19 03:00N 37°49' W 122°22'0 0.0
2018-Jan-19 02:30N 37°49' W 122°22'0 0.0
2018-Jan-19 02:00N 37°49' W 122°22'0 0.0
2018-Jan-19 01:30N 37°49' W 122°22'0 0.0
2018-Jan-19 01:00N 37°49' W 122°22'0 0.0
2018-Jan-19 00:30N 37°49' W 122°22'0 0.0
2018-Jan-19 00:00N 37°49' W 122°22'0 0.1
2018-Jan-18 23:27N 37°49' W 122°22'1 3.0
2018-Jan-18 23:00N 37°50' W 122°22'2 4.5
2018-Jan-18 22:30N 37°52' W 122°24'2 4.5
2018-Jan-18 22:00N 37°54' W 122°24'1 2.7
2018-Jan-18 21:28N 37°55' W 122°22'1 1.7
2018-Jan-18 20:59N 37°54' W 122°22'0 0.0
2018-Jan-18 20:26N 37°54' W 122°22'0 0.0
2018-Jan-18 19:59N 37°54' W 122°22'0 0.0
2018-Jan-18 19:26N 37°54' W 122°22'0 0.0
2018-Jan-18 18:59N 37°54' W 122°22'0 0.0
2018-Jan-18 18:29N 37°54' W 122°22'0 0.0
2018-Jan-18 17:56N 37°54' W 122°22'0 0.0
2018-Jan-18 17:29N 37°54' W 122°22'0 0.0
2018-Jan-18 16:59N 37°54' W 122°22'0 0.0
2018-Jan-18 16:29N 37°54' W 122°22'0 0.0
2018-Jan-18 16:01N 37°54' W 122°22'1 1.8
2018-Jan-18 15:30N 37°55' W 122°22'0 0.6
2018-Jan-18 15:00N 37°55' W 122°22'1 2.0
2018-Jan-18 14:31N 37°54' W 122°23'2 4.9
2018-Jan-18 14:01N 37°56' W 122°25'1 2.2
2018-Jan-18 13:30N 37°55' W 122°24'2 3.1
2018-Jan-18 12:58N 37°54' W 122°22'0 0.0
2018-Jan-18 12:28N 37°54' W 122°22'0 0.0
2018-Jan-18 11:58N 37°54' W 122°22'0 0.0
2018-Jan-18 11:28N 37°54' W 122°22'0 0.0
2018-Jan-18 10:58N 37°54' W 122°22'0 0.0
2018-Jan-18 10:28N 37°54' W 122°22'0 0.0
2018-Jan-18 09:58N 37°54' W 122°22'0 0.0
2018-Jan-18 09:25N 37°54' W 122°22'0 0.0
2018-Jan-18 08:58N 37°54' W 122°22'0 0.0
2018-Jan-18 08:28N 37°54' W 122°22'0 0.0
2018-Jan-18 07:58N 37°54' W 122°22'0 0.0
2018-Jan-18 07:25N 37°54' W 122°22'0 0.0
2018-Jan-18 06:58N 37°54' W 122°22'0 0.0
2018-Jan-18 06:28N 37°54' W 122°22'0 0.0
2018-Jan-18 05:58N 37°54' W 122°22'0 0.0
2018-Jan-18 05:28N 37°54' W 122°22'0 0.0
2018-Jan-18 04:58N 37°54' W 122°22'0 0.0
2018-Jan-18 04:28N 37°54' W 122°22'0 0.0
2018-Jan-18 03:58N 37°54' W 122°22'0 0.0
2018-Jan-18 03:28N 37°54' W 122°22'0 0.0
2018-Jan-18 02:58N 37°54' W 122°22'0 0.0
2018-Jan-18 02:28N 37°54' W 122°22'0 0.0
2018-Jan-18 01:58N 37°54' W 122°22'0 0.0
2018-Jan-18 01:28N 37°54' W 122°22'0 0.0
2018-Jan-18 00:58N 37°54' W 122°22'0 0.5
2018-Jan-18 00:00N 37°54' W 122°22'0 6.8
2018-Jan-17 23:58N 37°54' W 122°22'  
2018-Jan-12 15:00N 37°45' W 122°20'0 0.0
2018-Jan-12 14:30N 37°45' W 122°20'0 0.0
2018-Jan-12 14:00N 37°45' W 122°20'0 0.0
2018-Jan-12 13:30N 37°45' W 122°20'0 0.0
2018-Jan-12 13:00N 37°45' W 122°20'0 0.0
2018-Jan-12 12:30N 37°45' W 122°20'0 0.0
2018-Jan-12 12:00N 37°45' W 122°20'0 0.5
2018-Jan-12 11:30N 37°45' W 122°20'3 5.5
2018-Jan-12 11:00N 37°48' W 122°21'2 3.0
2018-Jan-12 10:28N 37°49' W 122°19'0 0.0
2018-Jan-12 09:58N 37°49' W 122°19'0 0.0
2018-Jan-12 09:28N 37°49' W 122°19'0 0.0
2018-Jan-12 08:58N 37°49' W 122°19'0 0.0
2018-Jan-12 08:28N 37°49' W 122°19'0 0.0
2018-Jan-12 07:58N 37°49' W 122°19'0 0.0
2018-Jan-12 07:28N 37°49' W 122°19'0 0.0
2018-Jan-12 06:58N 37°49' W 122°19'0 0.0
2018-Jan-12 06:28N 37°49' W 122°19'0 0.0
2018-Jan-12 05:58N 37°49' W 122°19'0 0.0
2018-Jan-12 05:28N 37°49' W 122°19'0 0.0
2018-Jan-12 04:58N 37°49' W 122°19'0 0.0
2018-Jan-12 04:28N 37°49' W 122°19'0 0.0
2018-Jan-12 03:58N 37°49' W 122°19'0 0.0
2018-Jan-12 03:28N 37°49' W 122°19'0 0.0
2018-Jan-12 02:58N 37°49' W 122°19'1 2.2
2018-Jan-12 02:31N 37°48' W 122°21'2 4.3
2018-Jan-12 02:00N 37°46' W 122°20'1 1.8
2018-Jan-12 01:31N 37°45' W 122°21'0 0.0
2018-Jan-12 01:01N 37°45' W 122°21'0 0.1
2018-Jan-12 00:31N 37°45' W 122°21'0 0.1
2018-Jan-12 00:00N 37°45' W 122°21'0 0.3
2018-Jan-11 23:31N 37°46' W 122°21'  

Dump ship's entire track history